createdAt,value
2022-08-03T00:02:20.745Z,4.40
2022-08-03T00:04:49.520Z,4.80
2022-08-03T00:07:18.322Z,4.20
2022-08-03T00:09:48.431Z,4.30
2022-08-03T00:12:17.689Z,3.87
2022-08-03T00:14:46.825Z,3.70
2022-08-03T00:17:15.536Z,3.83
2022-08-03T00:19:44.232Z,3.93
2022-08-03T00:22:13.046Z,4.20
2022-08-03T00:24:41.847Z,4.07
2022-08-03T00:27:12.042Z,3.80
2022-08-03T00:29:59.718Z,4.17
2022-08-03T00:32:28.963Z,3.90
2022-08-03T00:34:59.064Z,4.30
2022-08-03T00:37:41.301Z,4.63
2022-08-03T00:40:13.453Z,4.10
2022-08-03T00:42:55.290Z,3.63
2022-08-03T00:45:25.636Z,5.03
2022-08-03T00:47:54.841Z,4.00
2022-08-03T00:50:25.130Z,4.00
2022-08-03T00:52:55.536Z,3.97
2022-08-03T00:55:24.971Z,3.73
2022-08-03T00:57:55.608Z,4.10
2022-08-03T01:00:26.008Z,4.10
2022-08-03T01:02:55.386Z,4.10
2022-08-03T01:05:24.307Z,3.97
2022-08-03T01:08:03.156Z,3.97
2022-08-03T01:10:39.029Z,4.00
2022-08-03T01:13:59.951Z,4.40
2022-08-03T01:16:11.691Z,3.30
2022-08-03T01:18:44.736Z,4.23
2022-08-03T01:21:16.055Z,3.43
2022-08-03T01:23:53.117Z,4.30
2022-08-03T01:26:46.886Z,4.10
2022-08-03T01:29:46.619Z,4.20
2022-08-03T01:33:02.687Z,4.37
2022-08-03T01:35:12.867Z,4.50
2022-08-03T01:37:45.135Z,4.30
2022-08-03T01:40:14.723Z,4.00
2022-08-03T01:42:44.756Z,4.47
2022-08-03T01:45:17.857Z,4.80
2022-08-03T01:47:48.748Z,4.53
2022-08-03T01:50:19.880Z,4.00
2022-08-03T01:52:49.396Z,4.20
2022-08-03T01:55:20.518Z,4.07
2022-08-03T01:58:05.892Z,3.80
2022-08-03T02:00:37.320Z,4.10
2022-08-03T02:03:08.501Z,3.90
2022-08-03T02:05:37.629Z,4.40
2022-08-03T02:08:08.030Z,4.03
2022-08-03T02:10:37.381Z,4.60
2022-08-03T02:13:08.767Z,4.30
2022-08-03T02:15:38.601Z,4.20
2022-08-03T02:18:10.404Z,4.47
2022-08-03T02:20:39.765Z,4.40
2022-08-03T02:23:08.753Z,4.40
2022-08-03T02:25:42.404Z,4.60
2022-08-03T02:28:13.057Z,4.60
2022-08-03T02:30:44.297Z,4.20
2022-08-03T02:33:20.626Z,3.77
2022-08-03T02:35:50.509Z,3.87
2022-08-03T02:38:21.521Z,3.87
2022-08-03T02:40:51.156Z,4.00
2022-08-03T02:43:21.705Z,4.40
2022-08-03T02:45:51.657Z,4.07
2022-08-03T02:48:24.054Z,4.40
2022-08-03T02:50:54.425Z,4.87
2022-08-03T02:53:23.829Z,4.50
2022-08-03T02:55:53.522Z,4.40
2022-08-03T02:58:22.705Z,4.03
2022-08-03T03:00:52.832Z,4.13
2022-08-03T03:03:23.422Z,4.83
2022-08-03T03:05:57.841Z,4.37
2022-08-03T03:08:29.249Z,4.63
2022-08-03T03:11:00.128Z,4.63
2022-08-03T03:13:29.624Z,4.30
2022-08-03T03:16:01.513Z,4.23
2022-08-03T03:18:32.450Z,4.13
2022-08-03T03:21:03.036Z,4.00
2022-08-03T03:23:32.407Z,4.67
2022-08-03T03:26:03.443Z,3.87
2022-08-03T03:28:33.045Z,4.30
2022-08-03T03:31:02.280Z,4.20
2022-08-03T03:33:32.431Z,4.07
2022-08-03T03:36:01.316Z,4.93
2022-08-03T03:38:30.425Z,4.40
2022-08-03T03:40:59.429Z,3.90
2022-08-03T03:43:29.710Z,3.77
2022-08-03T03:45:58.758Z,4.10
2022-08-03T03:48:27.652Z,4.20
2022-08-03T03:50:59.190Z,4.73
2022-08-03T03:53:27.891Z,4.70
2022-08-03T03:55:57.781Z,4.33
2022-08-03T03:58:32.363Z,4.67
2022-08-03T04:01:01.375Z,4.70
2022-08-03T04:03:30.225Z,3.80
2022-08-03T04:06:18.337Z,4.50
2022-08-03T04:09:13.388Z,4.07
2022-08-03T04:11:50.031Z,4.30
2022-08-03T04:14:21.045Z,4.43
2022-08-03T04:16:52.177Z,3.63
2022-08-03T04:19:24.856Z,4.50
2022-08-03T04:21:57.912Z,4.57
2022-08-03T04:24:29.711Z,3.80
2022-08-03T04:26:59.291Z,4.00
2022-08-03T04:29:30.625Z,4.27
2022-08-03T04:32:00.359Z,4.20
2022-08-03T04:34:29.341Z,4.20
2022-08-03T04:37:01.213Z,4.70
2022-08-03T04:39:32.694Z,4.40
2022-08-03T04:42:09.170Z,4.40
2022-08-03T04:44:39.480Z,3.90
2022-08-03T04:47:08.313Z,4.07
2022-08-03T04:49:38.397Z,4.40
2022-08-03T04:52:10.942Z,4.50
2022-08-03T04:54:48.836Z,4.40
2022-08-03T04:57:23.174Z,4.90
2022-08-03T05:00:01.433Z,4.33
2022-08-03T05:02:31.929Z,4.60
2022-08-03T05:05:01.079Z,4.43
2022-08-03T05:07:36.144Z,4.47
2022-08-03T05:10:15.138Z,4.27
2022-08-03T05:12:46.670Z,4.33
2022-08-03T05:15:15.935Z,4.23
2022-08-03T05:17:44.862Z,4.43
2022-08-03T05:20:13.652Z,4.27
2022-08-03T05:22:46.848Z,4.70
2022-08-03T05:25:17.757Z,4.10
2022-08-03T05:27:49.603Z,4.57
2022-08-03T05:30:30.382Z,3.93
2022-08-03T05:33:04.021Z,3.97
2022-08-03T05:36:02.676Z,4.40
2022-08-03T05:38:28.471Z,4.80
2022-08-03T05:41:23.610Z,4.00
2022-08-03T05:43:47.390Z,4.53
2022-08-03T05:46:16.667Z,4.23
2022-08-03T05:48:45.816Z,4.57
2022-08-03T05:51:14.820Z,4.40
2022-08-03T05:53:46.022Z,4.83
2022-08-03T05:56:16.231Z,5.03
2022-08-03T05:58:46.576Z,4.33
2022-08-03T06:01:16.104Z,4.60
2022-08-03T06:03:45.449Z,3.97
2022-08-03T06:06:14.843Z,4.00
2022-08-03T06:08:45.554Z,4.10
2022-08-03T06:11:14.524Z,4.40
2022-08-03T06:13:43.635Z,4.50
2022-08-03T06:16:12.728Z,4.13
2022-08-03T06:18:41.776Z,4.13
2022-08-03T06:21:14.712Z,4.00
2022-08-03T06:23:53.927Z,4.60
2022-08-03T06:26:25.962Z,4.07
2022-08-03T06:28:55.462Z,4.23
2022-08-03T06:31:33.435Z,5.30
2022-08-03T06:34:32.872Z,4.30
2022-08-03T06:36:53.285Z,3.93
2022-08-03T06:39:23.955Z,4.00
2022-08-03T06:41:53.881Z,4.57
2022-08-03T06:44:22.687Z,4.30
2022-08-03T06:46:51.844Z,4.80
2022-08-03T06:49:21.278Z,5.03
2022-08-03T06:52:03.528Z,4.40
2022-08-03T06:54:39.538Z,3.90
2022-08-03T06:57:09.680Z,4.93
2022-08-03T07:00:06.557Z,4.17
2022-08-03T07:02:28.262Z,4.20
2022-08-03T07:04:58.737Z,3.40
2022-08-03T07:07:27.570Z,3.77
2022-08-03T07:09:58.517Z,3.70
2022-08-03T07:12:28.408Z,3.43
2022-08-03T07:15:01.404Z,5.20
2022-08-03T07:17:32.494Z,3.47
2022-08-03T07:20:02.393Z,3.93
2022-08-03T07:22:31.219Z,4.33
2022-08-03T07:25:01.996Z,4.10
2022-08-03T07:27:30.849Z,4.50
2022-08-03T07:30:00.144Z,4.03
2022-08-03T07:32:31.397Z,4.00
2022-08-03T07:35:01.676Z,3.37
2022-08-03T07:37:31.784Z,3.80
2022-08-03T07:40:02.830Z,3.70
2022-08-03T07:42:31.933Z,3.40
2022-08-03T07:45:01.258Z,3.40
2022-08-03T07:47:34.909Z,3.70
2022-08-03T07:50:08.722Z,3.20
2022-08-03T07:52:50.761Z,2.93
2022-08-03T07:55:22.327Z,3.60
2022-08-03T07:58:04.984Z,3.47
2022-08-03T08:00:34.160Z,2.53
2022-08-03T08:03:02.967Z,3.00
2022-08-03T08:05:31.750Z,3.80
2022-08-03T08:08:00.827Z,3.20
2022-08-03T08:10:31.245Z,3.00
2022-08-03T08:13:00.249Z,2.60
2022-08-03T08:15:30.194Z,2.80
2022-08-03T08:18:01.045Z,2.83
2022-08-03T08:20:32.862Z,2.67
2022-08-03T08:23:09.608Z,3.07
2022-08-03T08:25:57.537Z,2.80
2022-08-03T08:28:32.370Z,2.93
2022-08-03T08:31:06.672Z,2.47
2022-08-03T08:34:02.179Z,2.13
2022-08-03T08:36:25.470Z,2.97
2022-08-03T08:38:54.307Z,2.50
2022-08-03T08:41:32.119Z,2.20
2022-08-03T08:44:01.495Z,2.20
2022-08-03T08:46:34.023Z,2.00
2022-08-03T08:49:04.709Z,1.80
2022-08-03T08:51:54.459Z,2.13
2022-08-03T08:54:27.289Z,2.13
2022-08-03T08:56:59.571Z,1.73
2022-08-03T08:59:47.877Z,2.33
2022-08-03T09:02:17.729Z,1.60
2022-08-03T09:04:48.760Z,1.77
2022-08-03T09:07:20.467Z,1.70
2022-08-03T09:10:12.078Z,1.40
2022-08-03T09:12:42.739Z,1.70
2022-08-03T09:15:19.767Z,1.50
2022-08-03T09:17:51.117Z,1.53
2022-08-03T09:20:21.625Z,1.77
2022-08-03T09:22:53.699Z,1.40
2022-08-03T09:25:28.959Z,1.60
2022-08-03T09:28:10.393Z,1.50
2022-08-03T09:30:41.125Z,1.30
2022-08-03T09:33:11.128Z,1.10
2022-08-03T09:35:58.812Z,1.70
2022-08-03T09:38:27.736Z,1.00
2022-08-03T09:41:00.219Z,1.10
2022-08-03T09:43:47.192Z,1.27
2022-08-03T09:46:16.131Z,1.50
2022-08-03T09:48:44.842Z,1.50
2022-08-03T09:52:22.991Z,1.30
2022-08-03T09:54:07.598Z,1.10
2022-08-03T09:56:44.552Z,1.20
2022-08-03T09:59:24.011Z,1.30
2022-08-03T10:01:53.404Z,1.10
2022-08-03T10:04:22.783Z,1.00
2022-08-03T10:07:12.229Z,1.03
2022-08-03T10:09:55.394Z,0.90
2022-08-03T10:12:24.486Z,1.30
2022-08-03T10:14:55.198Z,1.30
2022-08-03T10:17:24.585Z,1.10
2022-08-03T10:19:53.360Z,1.10
2022-08-03T10:22:24.274Z,1.30
2022-08-03T10:24:55.175Z,1.10
2022-08-03T10:27:25.125Z,1.30
2022-08-03T10:29:57.357Z,1.10
2022-08-03T10:32:30.443Z,1.27
2022-08-03T10:35:19.929Z,1.30
2022-08-03T10:37:56.885Z,1.20
2022-08-03T10:43:20.926Z,1.43
2022-08-03T10:45:52.392Z,1.33
2022-08-03T10:48:21.929Z,1.37
2022-08-03T10:50:51.056Z,1.33
2022-08-03T10:53:35.460Z,1.50
2022-08-03T10:56:35.447Z,1.33
2022-08-03T10:59:12.128Z,1.60
2022-08-03T11:02:00.745Z,1.50
2022-08-03T11:04:31.066Z,1.30
2022-08-03T11:07:22.670Z,1.27
2022-08-03T11:10:07.732Z,1.20
2022-08-03T11:12:39.345Z,1.13
2022-08-03T11:15:09.591Z,1.77
2022-08-03T11:18:27.642Z,1.30
2022-08-03T11:20:58.237Z,1.50
2022-08-03T11:24:04.128Z,1.20
2022-08-03T11:26:33.435Z,1.40
2022-08-03T11:29:29.792Z,1.10
2022-08-03T11:32:20.242Z,1.27
2022-08-03T11:35:13.086Z,1.50
2022-08-03T11:38:10.465Z,1.23
2022-08-03T11:40:44.381Z,1.40
2022-08-03T11:43:48.889Z,1.37
2022-08-03T11:46:28.693Z,1.33
2022-08-03T11:49:10.519Z,1.60
2022-08-03T11:51:44.174Z,1.20
2022-08-03T11:54:13.311Z,1.33
2022-08-03T11:56:46.710Z,3.90
2022-08-03T11:59:20.622Z,2.40
2022-08-03T12:01:50.742Z,1.37
2022-08-03T12:04:19.761Z,1.47
2022-08-03T12:07:03.563Z,1.20
2022-08-03T12:09:34.411Z,1.27
2022-08-03T12:12:03.553Z,1.60
2022-08-03T12:14:49.992Z,1.40
2022-08-03T12:17:21.562Z,1.17
2022-08-03T12:19:50.558Z,1.30
2022-08-03T12:22:32.383Z,1.30
2022-08-03T12:25:01.157Z,1.47
2022-08-03T12:27:30.164Z,1.87
2022-08-03T12:29:59.931Z,1.57
2022-08-03T12:32:30.032Z,1.70
2022-08-03T12:35:01.634Z,1.60
2022-08-03T12:37:32.664Z,1.33
2022-08-03T12:40:09.994Z,1.30
2022-08-03T12:42:41.073Z,1.47
2022-08-03T12:45:20.047Z,1.20
2022-08-03T12:47:57.110Z,1.40
2022-08-03T12:50:31.575Z,1.33
2022-08-03T12:53:03.039Z,1.57
2022-08-03T12:55:56.508Z,1.40
2022-08-03T12:58:34.942Z,1.27
2022-08-03T13:01:09.758Z,1.30
2022-08-03T13:03:45.855Z,1.23
2022-08-03T13:06:20.228Z,1.37
2022-08-03T13:08:51.697Z,1.57
2022-08-03T13:11:55.809Z,1.40
2022-08-03T13:14:16.719Z,1.40
2022-08-03T13:16:49.683Z,1.30
2022-08-03T13:19:18.543Z,1.30
2022-08-03T13:22:01.706Z,1.67
2022-08-03T13:24:34.824Z,1.30
2022-08-03T13:28:01.758Z,1.57
2022-08-03T13:29:54.199Z,1.30
2022-08-03T13:32:23.549Z,1.43
2022-08-03T13:34:52.358Z,1.30
2022-08-03T13:37:22.109Z,1.30
2022-08-03T13:39:59.605Z,1.13
2022-08-03T13:42:30.874Z,1.40
2022-08-03T13:44:59.710Z,1.23
2022-08-03T13:47:28.774Z,1.33
2022-08-03T13:50:01.197Z,1.20
2022-08-03T13:52:35.679Z,1.30
2022-08-03T13:55:07.817Z,1.77
2022-08-03T13:58:02.872Z,1.40
2022-08-03T14:00:29.030Z,1.53
2022-08-03T14:03:13.645Z,1.70
2022-08-03T14:05:43.930Z,1.40
2022-08-03T14:08:13.623Z,1.20
2022-08-03T14:10:45.831Z,1.30
2022-08-03T14:13:16.664Z,1.17
2022-08-03T14:15:49.717Z,1.20
2022-08-03T14:18:27.789Z,1.50
2022-08-03T14:21:03.410Z,1.30
2022-08-03T14:23:34.706Z,1.43
2022-08-03T14:26:05.576Z,1.37
2022-08-03T14:28:34.490Z,1.60
2022-08-03T14:31:03.905Z,1.77
2022-08-03T14:33:37.403Z,1.60
2022-08-03T14:36:06.874Z,1.20
2022-08-03T14:38:35.795Z,1.50
2022-08-03T14:41:06.092Z,1.27
2022-08-03T14:43:40.998Z,1.40
2022-08-03T14:46:30.713Z,1.10
2022-08-03T14:50:33.699Z,1.40
2022-08-03T14:51:53.519Z,1.40
2022-08-03T14:54:23.623Z,1.40
2022-08-03T14:56:53.885Z,1.37
2022-08-03T14:59:22.697Z,1.60
2022-08-03T15:02:02.239Z,1.60
2022-08-03T15:04:33.035Z,1.40
2022-08-03T15:07:02.007Z,1.40
2022-08-03T15:09:30.731Z,1.47
2022-08-03T15:12:00.924Z,1.67
2022-08-03T15:14:38.650Z,1.67
2022-08-03T15:17:07.718Z,1.57
2022-08-03T15:20:03.241Z,1.80
2022-08-03T15:22:34.615Z,1.40
2022-08-03T15:26:02.223Z,1.30
2022-08-03T15:28:03.718Z,1.23
2022-08-03T15:30:36.058Z,1.23
2022-08-03T15:33:05.207Z,1.50
2022-08-03T15:35:34.084Z,1.53
2022-08-03T15:38:08.689Z,1.73
2022-08-03T15:40:38.151Z,1.57
2022-08-03T15:43:08.289Z,1.80
2022-08-03T15:45:37.180Z,1.23
2022-08-03T15:48:06.431Z,1.20
2022-08-03T15:50:35.540Z,1.30
2022-08-03T15:53:04.837Z,1.30
2022-08-03T15:55:33.813Z,1.60
2022-08-03T15:59:04.856Z,1.50
2022-08-03T16:00:53.060Z,1.70
2022-08-03T16:03:21.825Z,1.73
2022-08-03T16:05:50.609Z,1.43
2022-08-03T16:08:19.451Z,1.33
2022-08-03T16:10:48.590Z,1.30
2022-08-03T16:13:21.660Z,1.20
2022-08-03T16:16:11.755Z,1.30
2022-08-03T16:18:40.505Z,1.20
2022-08-03T16:21:09.465Z,1.27
2022-08-03T16:23:48.825Z,1.43
2022-08-03T16:26:17.569Z,1.23
2022-08-03T16:28:46.325Z,1.27
2022-08-03T16:31:17.041Z,1.40
2022-08-03T16:33:45.823Z,1.33
2022-08-03T16:36:14.639Z,1.43
2022-08-03T16:38:43.357Z,1.40
2022-08-03T16:41:12.178Z,1.60
2022-08-03T16:43:40.960Z,1.40
2022-08-03T16:46:09.681Z,1.67
2022-08-03T16:48:40.398Z,1.67
2022-08-03T16:51:09.192Z,1.17
2022-08-03T16:54:07.533Z,1.40
2022-08-03T16:56:26.810Z,1.33
2022-08-03T16:58:55.594Z,1.30
2022-08-03T17:01:25.074Z,1.30
2022-08-03T17:04:06.058Z,1.40
2022-08-03T17:06:37.157Z,1.43
2022-08-03T17:09:08.939Z,1.50
2022-08-03T17:11:46.766Z,1.60
2022-08-03T17:14:17.293Z,1.40
2022-08-03T17:16:54.256Z,1.43
2022-08-03T17:19:26.419Z,1.47
2022-08-03T17:22:04.183Z,1.43
2022-08-03T17:24:35.285Z,2.00
2022-08-03T17:27:09.283Z,1.70
2022-08-03T17:30:00.985Z,2.10
2022-08-03T17:32:33.029Z,1.43
2022-08-03T17:35:06.459Z,1.30
2022-08-03T17:37:58.190Z,1.50
2022-08-03T17:40:26.152Z,1.50
2022-08-03T17:42:55.754Z,1.40
2022-08-03T17:45:24.552Z,1.50
2022-08-03T17:48:18.609Z,1.37
2022-08-03T17:50:55.581Z,1.50
2022-08-03T17:53:29.477Z,1.70
2022-08-03T17:56:38.789Z,1.53
2022-08-03T17:59:01.957Z,2.50
2022-08-03T18:02:08.962Z,1.60
2022-08-03T18:04:43.368Z,2.17
2022-08-03T18:07:41.036Z,1.77
2022-08-03T18:10:15.106Z,1.73
2022-08-03T18:12:51.817Z,1.73
2022-08-03T18:15:27.042Z,2.00
2022-08-03T18:18:02.951Z,1.97
2022-08-03T18:20:42.692Z,1.60
2022-08-03T18:23:25.121Z,1.40
2022-08-03T18:26:07.795Z,1.50
2022-08-03T18:28:41.758Z,1.47
2022-08-03T18:31:12.900Z,1.80
2022-08-03T18:34:16.858Z,1.63
2022-08-03T18:36:54.796Z,1.70
2022-08-03T18:39:26.573Z,1.30
2022-08-03T18:41:55.437Z,1.60
2022-08-03T18:44:53.358Z,2.00
2022-08-03T18:47:50.841Z,1.77
2022-08-03T18:50:20.859Z,1.57
2022-08-03T18:52:54.165Z,1.47
2022-08-03T18:55:33.086Z,2.30
2022-08-03T18:58:15.977Z,3.23
2022-08-03T19:00:54.585Z,3.67
2022-08-03T19:03:42.925Z,2.87
2022-08-03T19:06:19.902Z,2.80
2022-08-03T19:08:51.930Z,2.83
2022-08-03T19:11:27.883Z,2.67
2022-08-03T19:14:02.189Z,2.23
2022-08-03T19:16:34.326Z,2.80
2022-08-03T19:19:03.591Z,2.10
2022-08-03T19:21:36.559Z,3.30
2022-08-03T19:24:10.128Z,2.70
2022-08-03T19:26:41.542Z,3.10
2022-08-03T19:29:15.026Z,3.40
2022-08-03T19:31:59.089Z,2.57
2022-08-03T19:34:29.794Z,3.10
2022-08-03T19:36:59.187Z,3.00
2022-08-03T19:39:28.614Z,2.30
2022-08-03T19:42:10.082Z,3.27
2022-08-03T19:44:52.490Z,3.17
2022-08-03T19:47:27.152Z,2.30
2022-08-03T19:50:05.128Z,2.80
2022-08-03T19:52:36.440Z,2.23
2022-08-03T19:55:09.531Z,2.50
2022-08-03T19:57:46.140Z,2.30
2022-08-03T20:00:26.537Z,2.50
2022-08-03T20:02:59.862Z,3.60
2022-08-03T20:05:28.664Z,3.83
2022-08-03T20:08:14.545Z,3.57
2022-08-03T20:10:43.351Z,2.53
2022-08-03T20:13:19.497Z,2.90
2022-08-03T20:15:48.781Z,2.43
2022-08-03T20:18:22.400Z,2.83
2022-08-03T20:20:53.301Z,2.60
2022-08-03T20:23:22.903Z,2.70
2022-08-03T20:25:57.300Z,2.23
2022-08-03T20:28:32.406Z,2.70
2022-08-03T20:31:01.963Z,2.50
2022-08-03T20:33:50.284Z,2.73
2022-08-03T20:36:19.477Z,2.97
2022-08-03T20:38:49.522Z,1.93
2022-08-03T20:41:20.957Z,2.20
2022-08-03T20:43:51.273Z,2.47
2022-08-03T20:46:35.316Z,2.00
2022-08-03T20:49:07.401Z,2.10
2022-08-03T20:51:50.471Z,2.13
2022-08-03T20:54:31.273Z,2.57
2022-08-03T20:57:03.871Z,2.40
2022-08-03T20:59:50.154Z,2.37
2022-08-03T21:02:29.864Z,3.13
2022-08-03T21:05:03.181Z,3.83
2022-08-03T21:08:03.822Z,2.60
2022-08-03T21:10:31.725Z,2.87
2022-08-03T21:13:16.409Z,2.93
2022-08-03T21:16:06.099Z,2.67
2022-08-03T21:18:47.280Z,2.60
2022-08-03T21:21:17.985Z,3.27
2022-08-03T21:23:49.894Z,2.77
2022-08-03T21:26:20.342Z,2.47
2022-08-03T21:28:50.248Z,3.13
2022-08-03T21:31:24.599Z,3.07
2022-08-03T21:33:57.403Z,2.40
2022-08-03T21:36:27.737Z,2.53
2022-08-03T21:38:57.813Z,3.53
2022-08-03T21:41:30.554Z,2.87
2022-08-03T21:44:00.109Z,3.07
2022-08-03T21:46:31.896Z,2.53
2022-08-03T21:50:05.660Z,3.10
2022-08-03T21:51:51.577Z,2.73
2022-08-03T21:54:21.395Z,3.10
2022-08-03T21:56:52.358Z,3.40
2022-08-03T21:59:21.733Z,3.00
2022-08-03T22:01:55.355Z,2.90
2022-08-03T22:04:55.494Z,2.87
2022-08-03T22:07:17.060Z,2.80
2022-08-03T22:09:51.304Z,2.50
2022-08-03T22:12:24.471Z,2.93
2022-08-03T22:15:00.849Z,2.60
2022-08-03T22:17:54.957Z,2.90
2022-08-03T22:20:23.609Z,2.40
2022-08-03T22:22:56.952Z,2.43
2022-08-03T22:25:29.868Z,2.27
2022-08-03T22:28:00.901Z,2.60
2022-08-03T22:30:31.652Z,2.40
2022-08-03T22:33:12.748Z,2.50
2022-08-03T22:35:47.495Z,2.63
2022-08-03T22:38:18.136Z,2.43
2022-08-03T22:40:48.866Z,2.30
2022-08-03T22:43:17.697Z,3.20
2022-08-03T22:46:11.253Z,2.57
2022-08-03T22:48:41.424Z,2.90
2022-08-03T22:51:11.226Z,2.83
2022-08-03T22:53:41.152Z,2.77
2022-08-03T22:56:10.000Z,2.97
2022-08-03T22:58:38.739Z,2.80
2022-08-03T23:01:09.194Z,2.40
2022-08-03T23:04:00.341Z,2.43
2022-08-03T23:06:34.407Z,2.50
2022-08-03T23:09:08.644Z,2.50
2022-08-03T23:11:45.306Z,1.80
2022-08-03T23:14:16.800Z,2.20
2022-08-03T23:16:46.833Z,2.43
2022-08-03T23:19:25.505Z,2.80
2022-08-03T23:22:02.456Z,2.13
2022-08-03T23:24:36.152Z,2.80
2022-08-03T23:27:07.368Z,2.53
2022-08-03T23:29:37.323Z,2.67
2022-08-03T23:32:07.112Z,2.17
2022-08-03T23:34:57.270Z,2.73
2022-08-03T23:37:26.817Z,2.37
2022-08-03T23:39:56.189Z,2.47
2022-08-03T23:42:25.315Z,2.30
2022-08-03T23:44:56.441Z,2.47
2022-08-03T23:47:46.840Z,2.67
2022-08-03T23:50:18.622Z,2.37
2022-08-03T23:52:55.730Z,2.53
2022-08-03T23:55:34.404Z,2.20
2022-08-03T23:58:10.649Z,2.60
